createdAt,value
2023-02-27T00:01:53.725Z,1.00
2023-02-27T00:04:20.305Z,1.00
2023-02-27T00:06:46.910Z,0.90
2023-02-27T00:09:13.510Z,1.00
2023-02-27T00:11:40.291Z,1.02
2023-02-27T00:14:06.927Z,1.00
2023-02-27T00:16:34.349Z,1.00
2023-02-27T00:19:04.600Z,1.00
2023-02-27T00:21:32.581Z,0.90
2023-02-27T00:23:59.270Z,1.00
2023-02-27T00:26:26.080Z,0.95
2023-02-27T00:28:52.626Z,0.90
2023-02-27T00:31:19.328Z,0.90
2023-02-27T00:33:45.900Z,0.82
2023-02-27T00:36:12.863Z,1.00
2023-02-27T00:38:39.595Z,0.90
2023-02-27T00:41:06.247Z,0.90
2023-02-27T00:43:32.925Z,1.00
2023-02-27T00:45:59.481Z,1.00
2023-02-27T00:48:26.083Z,0.90
2023-02-27T00:50:52.720Z,0.90
2023-02-27T00:53:19.318Z,0.90
2023-02-27T00:55:46.037Z,1.00
2023-02-27T00:58:12.646Z,1.00
2023-02-27T01:00:39.247Z,1.00
2023-02-27T01:03:05.944Z,0.90
2023-02-27T01:05:32.674Z,0.90
2023-02-27T01:07:59.270Z,0.98
2023-02-27T01:10:25.910Z,0.90
2023-02-27T01:12:52.641Z,0.90
2023-02-27T01:15:19.296Z,1.00
2023-02-27T01:17:47.998Z,0.90
2023-02-27T01:20:15.586Z,0.82
2023-02-27T01:22:42.637Z,0.90
2023-02-27T01:25:09.983Z,0.90
2023-02-27T01:27:36.758Z,0.90
2023-02-27T01:30:04.056Z,0.98
2023-02-27T01:32:30.683Z,0.90
2023-02-27T01:34:57.296Z,0.90
2023-02-27T01:37:23.926Z,0.90
2023-02-27T01:39:50.624Z,0.90
2023-02-27T01:42:23.361Z,0.85
2023-02-27T01:45:22.402Z,0.90
2023-02-27T01:47:52.888Z,0.90
2023-02-27T01:50:20.232Z,0.90
2023-02-27T01:52:53.186Z,0.90
2023-02-27T01:55:20.624Z,0.90
2023-02-27T01:57:49.378Z,0.90
2023-02-27T02:00:16.557Z,0.90
2023-02-27T02:02:52.505Z,0.80
2023-02-27T02:05:20.669Z,1.00
2023-02-27T02:07:49.020Z,0.90
2023-02-27T02:10:16.655Z,0.90
2023-02-27T02:12:45.158Z,0.90
2023-02-27T02:15:11.941Z,0.90
2023-02-27T02:18:16.419Z,0.90
2023-02-27T02:21:01.560Z,0.90
2023-02-27T02:24:05.913Z,0.80
2023-02-27T02:26:51.104Z,0.90
2023-02-27T02:29:26.753Z,0.80
2023-02-27T02:31:59.173Z,0.80
2023-02-27T02:34:31.951Z,0.80
2023-02-27T02:37:01.306Z,0.88
2023-02-27T02:40:03.581Z,0.80
2023-02-27T02:42:35.176Z,0.90
2023-02-27T02:45:43.120Z,0.80
2023-02-27T02:48:16.630Z,0.90
2023-02-27T02:50:55.326Z,0.85
2023-02-27T02:53:36.175Z,0.90
2023-02-27T02:56:24.990Z,0.80
2023-02-27T02:59:04.460Z,0.90
2023-02-27T03:01:37.400Z,0.88
2023-02-27T03:04:10.756Z,0.80
2023-02-27T03:06:43.357Z,0.90
2023-02-27T03:09:19.716Z,0.80
2023-02-27T03:11:51.155Z,0.90
2023-02-27T03:14:33.657Z,0.90
2023-02-27T03:17:06.057Z,0.80
2023-02-27T03:19:57.360Z,0.80
2023-02-27T03:22:31.069Z,0.77
2023-02-27T03:25:01.377Z,0.80
2023-02-27T03:27:38.445Z,0.90
2023-02-27T03:30:10.391Z,0.90
2023-02-27T03:32:43.674Z,0.80
2023-02-27T03:35:12.731Z,0.80
2023-02-27T03:37:59.644Z,0.80
2023-02-27T03:40:35.513Z,0.70
2023-02-27T03:43:34.937Z,0.80
2023-02-27T03:46:10.580Z,0.75
2023-02-27T03:48:37.655Z,0.80
2023-02-27T03:51:04.644Z,0.75
2023-02-27T03:53:58.861Z,0.80
2023-02-27T03:56:31.805Z,0.80
2023-02-27T03:58:58.674Z,0.80
2023-02-27T04:01:26.240Z,0.70
2023-02-27T04:04:02.755Z,0.80
2023-02-27T04:06:49.300Z,0.80
2023-02-27T04:09:45.750Z,0.73
2023-02-27T04:12:21.068Z,0.73
2023-02-27T04:15:16.581Z,0.80
2023-02-27T04:18:18.909Z,0.80
2023-02-27T04:20:49.632Z,0.75
2023-02-27T04:23:26.658Z,0.80
2023-02-27T04:26:39.563Z,0.80
2023-02-27T04:29:17.423Z,0.80
2023-02-27T04:32:10.468Z,0.90
2023-02-27T04:34:53.234Z,0.70
2023-02-27T04:37:44.219Z,0.90
2023-02-27T04:40:15.827Z,0.80
2023-02-27T04:42:48.645Z,0.80
2023-02-27T04:45:21.160Z,0.85
2023-02-27T04:47:56.326Z,0.90
2023-02-27T04:50:29.726Z,0.80
2023-02-27T04:55:37.268Z,0.80
2023-02-27T04:58:27.527Z,0.80
2023-02-27T05:01:01.547Z,0.75
2023-02-27T05:03:34.651Z,0.70
2023-02-27T05:06:02.932Z,0.80
2023-02-27T05:08:49.522Z,0.90
2023-02-27T05:11:25.909Z,0.80
2023-02-27T05:13:58.946Z,0.80
2023-02-27T05:16:41.553Z,0.90
2023-02-27T05:19:08.891Z,0.80
2023-02-27T05:22:05.842Z,0.80
2023-02-27T05:24:50.611Z,0.90
2023-02-27T05:27:20.285Z,0.80
2023-02-27T05:29:58.313Z,0.80
2023-02-27T05:32:34.029Z,0.80
2023-02-27T05:35:24.797Z,0.80
2023-02-27T05:38:00.450Z,0.80
2023-02-27T05:40:34.002Z,0.80
2023-02-27T05:43:03.569Z,0.80
2023-02-27T05:45:32.729Z,0.80
2023-02-27T05:48:04.907Z,0.90
2023-02-27T05:50:34.628Z,0.80
2023-02-27T05:53:04.634Z,0.80
2023-02-27T05:55:57.621Z,0.80
2023-02-27T05:58:30.276Z,0.85
2023-02-27T06:01:06.240Z,0.80
2023-02-27T06:03:35.673Z,0.80
2023-02-27T06:06:08.571Z,0.80
2023-02-27T06:08:35.959Z,0.85
2023-02-27T06:11:02.901Z,0.80
2023-02-27T06:13:29.577Z,0.80
2023-02-27T06:15:56.115Z,0.77
2023-02-27T06:18:23.186Z,0.90
2023-02-27T06:20:50.073Z,0.80
2023-02-27T06:23:17.315Z,0.80
2023-02-27T06:25:44.188Z,0.90
2023-02-27T06:28:11.520Z,0.90
2023-02-27T06:30:38.205Z,1.00
2023-02-27T06:33:05.480Z,0.90
2023-02-27T06:35:32.558Z,0.90
2023-02-27T06:37:59.539Z,0.80
2023-02-27T06:40:26.398Z,0.90
2023-02-27T06:42:52.959Z,1.00
2023-02-27T06:45:19.628Z,0.90
2023-02-27T06:47:46.287Z,1.00
2023-02-27T06:50:13.930Z,0.90
2023-02-27T06:52:41.058Z,0.90
2023-02-27T06:55:09.372Z,0.93
2023-02-27T06:57:36.317Z,1.00
2023-02-27T07:00:04.401Z,1.20
2023-02-27T07:02:31.235Z,1.00
2023-02-27T07:04:58.088Z,1.00
2023-02-27T07:07:33.347Z,1.20
2023-02-27T07:10:05.772Z,1.33
2023-02-27T07:12:32.410Z,1.33
2023-02-27T07:14:59.231Z,1.30
2023-02-27T07:17:25.961Z,1.25
2023-02-27T07:19:52.557Z,1.25
2023-02-27T07:22:19.149Z,1.33
2023-02-27T07:24:45.732Z,1.20
2023-02-27T07:27:12.334Z,1.48
2023-02-27T07:29:38.899Z,1.30
2023-02-27T07:32:05.759Z,1.23
2023-02-27T07:34:32.420Z,1.23
2023-02-27T07:36:59.008Z,1.20
2023-02-27T07:39:25.667Z,1.30
2023-02-27T07:41:52.292Z,1.20
2023-02-27T07:44:19.033Z,1.30
2023-02-27T07:46:47.424Z,1.20
2023-02-27T07:49:14.236Z,1.30
2023-02-27T07:51:41.052Z,1.30
2023-02-27T07:54:07.859Z,1.23
2023-02-27T07:56:34.721Z,1.30
2023-02-27T07:59:01.460Z,1.50
2023-02-27T08:01:28.161Z,1.40
2023-02-27T08:03:56.480Z,1.40
2023-02-27T08:06:24.324Z,1.50
2023-02-27T08:08:51.926Z,1.30
2023-02-27T08:11:18.851Z,1.58
2023-02-27T08:14:02.815Z,1.60
2023-02-27T08:16:31.432Z,1.60
2023-02-27T08:18:58.739Z,1.60
2023-02-27T08:21:25.709Z,1.38
2023-02-27T08:23:52.535Z,1.70
2023-02-27T08:26:19.360Z,1.67
2023-02-27T08:28:45.995Z,1.60
2023-02-27T08:31:12.874Z,1.80
2023-02-27T08:33:40.093Z,1.80
2023-02-27T08:36:08.057Z,1.58
2023-02-27T08:38:34.726Z,1.80
2023-02-27T08:41:01.432Z,1.70
2023-02-27T08:43:28.044Z,1.83
2023-02-27T08:45:54.903Z,1.90
2023-02-27T08:48:21.595Z,1.77
2023-02-27T08:50:48.227Z,1.80
2023-02-27T08:53:14.901Z,1.80
2023-02-27T08:55:42.680Z,2.03
2023-02-27T08:58:10.161Z,2.00
2023-02-27T09:00:36.883Z,1.60
2023-02-27T09:03:03.663Z,1.90
2023-02-27T09:05:30.396Z,1.73
2023-02-27T09:07:57.004Z,1.65
2023-02-27T09:10:23.750Z,1.73
2023-02-27T09:12:50.363Z,1.70
2023-02-27T09:15:17.137Z,1.80
2023-02-27T09:17:43.814Z,2.00
2023-02-27T09:20:12.691Z,1.80
2023-02-27T09:22:39.626Z,1.70
2023-02-27T09:25:07.103Z,1.80
2023-02-27T09:27:34.542Z,1.75
2023-02-27T09:30:01.346Z,1.80
2023-02-27T09:32:28.237Z,1.80
2023-02-27T09:34:55.056Z,2.00
2023-02-27T09:37:21.641Z,2.00
2023-02-27T09:39:48.235Z,2.03
2023-02-27T09:42:21.142Z,2.08
2023-02-27T09:44:49.285Z,1.98
2023-02-27T09:47:30.535Z,1.73
2023-02-27T09:50:18.425Z,1.60
2023-02-27T09:52:45.225Z,2.00
2023-02-27T09:55:17.588Z,2.00
2023-02-27T09:58:01.710Z,2.13
2023-02-27T10:00:52.807Z,1.90
2023-02-27T10:03:45.702Z,1.88
2023-02-27T10:06:12.200Z,2.00
2023-02-27T10:08:50.724Z,1.95
2023-02-27T10:11:40.311Z,2.13
2023-02-27T10:14:29.953Z,1.80
2023-02-27T10:16:59.183Z,1.92
2023-02-27T10:19:32.185Z,1.90
2023-02-27T10:22:02.149Z,2.10
2023-02-27T10:24:37.993Z,2.00
2023-02-27T10:27:11.704Z,2.15
2023-02-27T10:29:41.818Z,2.10
2023-02-27T10:32:22.863Z,2.13
2023-02-27T10:35:07.129Z,2.20
2023-02-27T10:37:36.352Z,2.20
2023-02-27T10:40:06.391Z,2.13
2023-02-27T10:42:38.845Z,2.00
2023-02-27T10:45:12.352Z,2.50
2023-02-27T10:47:39.800Z,2.40
2023-02-27T10:50:23.192Z,2.45
2023-02-27T10:52:52.085Z,2.67
2023-02-27T10:55:23.374Z,2.53
2023-02-27T10:57:50.229Z,2.45
2023-02-27T11:00:28.329Z,2.90
2023-02-27T11:02:55.366Z,2.80
2023-02-27T11:05:33.924Z,2.42
2023-02-27T11:08:30.647Z,2.40
2023-02-27T11:11:04.933Z,2.20
2023-02-27T11:13:36.195Z,2.30
2023-02-27T11:16:09.643Z,2.10
2023-02-27T11:21:10.100Z,2.20
2023-02-27T11:23:37.238Z,2.00
2023-02-27T11:26:15.414Z,2.15
2023-02-27T11:28:42.487Z,2.00
2023-02-27T11:31:23.445Z,2.10
2023-02-27T11:33:58.854Z,2.22
2023-02-27T11:36:49.656Z,1.90
2023-02-27T11:39:33.319Z,2.28
2023-02-27T11:42:17.147Z,2.08
2023-02-27T11:46:11.365Z,1.92
2023-02-27T11:48:18.513Z,2.10
2023-02-27T11:51:11.489Z,1.70
2023-02-27T11:54:04.448Z,2.00
2023-02-27T11:56:37.734Z,1.88
2023-02-27T11:59:10.338Z,2.22
2023-02-27T12:02:01.724Z,2.00
2023-02-27T12:04:41.982Z,2.03
2023-02-27T12:07:23.502Z,2.10
2023-02-27T12:09:58.901Z,2.20
2023-02-27T12:12:41.651Z,2.08
2023-02-27T12:15:27.455Z,2.30
2023-02-27T12:18:05.562Z,2.40
2023-02-27T12:20:37.662Z,2.22
2023-02-27T12:23:15.656Z,2.22
2023-02-27T12:25:50.929Z,2.40
2023-02-27T12:28:33.311Z,2.20
2023-02-27T12:31:28.042Z,2.20
2023-02-27T12:34:02.542Z,2.60
2023-02-27T12:36:29.212Z,2.25
2023-02-27T12:38:56.140Z,2.28
2023-02-27T12:41:44.021Z,2.50
2023-02-27T12:44:16.557Z,2.30
2023-02-27T12:47:09.704Z,2.40
2023-02-27T12:49:52.636Z,2.30
2023-02-27T12:52:28.852Z,2.37
2023-02-27T12:55:16.596Z,1.83
2023-02-27T12:58:25.081Z,1.98
2023-02-27T13:01:06.048Z,2.30
2023-02-27T13:03:35.874Z,2.10
2023-02-27T13:06:27.894Z,1.90
2023-02-27T13:09:15.101Z,2.17
2023-02-27T13:11:41.775Z,2.10
2023-02-27T13:14:28.714Z,1.98
2023-02-27T13:17:22.448Z,2.08
2023-02-27T13:20:16.802Z,1.70
2023-02-27T13:23:15.478Z,1.90
2023-02-27T13:25:46.889Z,1.70
2023-02-27T13:28:18.254Z,2.10
2023-02-27T13:30:56.873Z,1.88
2023-02-27T13:33:38.145Z,2.00
2023-02-27T13:36:41.908Z,1.80
2023-02-27T13:39:39.957Z,1.80
2023-02-27T13:42:35.881Z,2.00
2023-02-27T13:45:44.125Z,1.90
2023-02-27T13:48:40.190Z,1.92
2023-02-27T13:51:11.552Z,1.80
2023-02-27T13:53:38.550Z,1.90
2023-02-27T13:56:23.900Z,2.05
2023-02-27T13:58:51.096Z,2.10
2023-02-27T14:01:28.747Z,1.70
2023-02-27T14:04:02.892Z,2.08
2023-02-27T14:06:29.948Z,1.75
2023-02-27T14:09:08.905Z,1.90
2023-02-27T14:11:51.112Z,1.98
2023-02-27T14:14:36.427Z,2.08
2023-02-27T14:17:03.766Z,1.80
2023-02-27T14:19:42.622Z,1.92
2023-02-27T14:22:10.789Z,1.63
2023-02-27T14:25:22.154Z,1.80
2023-02-27T14:27:56.952Z,1.95
2023-02-27T14:30:34.860Z,1.75
2023-02-27T14:33:38.035Z,1.80
2023-02-27T14:36:09.926Z,1.50
2023-02-27T14:38:38.609Z,1.67
2023-02-27T14:41:34.381Z,1.60
2023-02-27T14:44:01.977Z,1.60
2023-02-27T14:46:32.933Z,1.45
2023-02-27T14:49:02.831Z,1.60
2023-02-27T14:51:34.716Z,1.50
2023-02-27T14:54:22.796Z,1.45
2023-02-27T14:57:01.052Z,1.70
2023-02-27T14:59:31.094Z,1.80
2023-02-27T15:02:02.043Z,1.60
2023-02-27T15:04:31.175Z,1.98
2023-02-27T15:06:59.570Z,1.52
2023-02-27T15:09:31.912Z,1.58
2023-02-27T15:12:04.086Z,1.60
2023-02-27T15:14:36.108Z,1.47
2023-02-27T15:17:03.783Z,1.70
2023-02-27T15:19:31.351Z,1.60
2023-02-27T15:22:01.225Z,1.52
2023-02-27T15:24:47.832Z,1.50
2023-02-27T15:27:22.832Z,1.60
2023-02-27T15:29:55.973Z,1.48
2023-02-27T15:32:39.793Z,1.70
2023-02-27T15:38:02.799Z,1.35
2023-02-27T15:40:32.990Z,1.50
2023-02-27T15:43:01.209Z,1.48
2023-02-27T15:45:35.805Z,1.35
2023-02-27T15:48:03.798Z,1.42
2023-02-27T15:50:38.086Z,1.50
2023-02-27T15:53:07.619Z,1.40
2023-02-27T15:55:37.642Z,1.50
2023-02-27T15:58:19.465Z,1.40
2023-02-27T16:00:46.752Z,1.40
2023-02-27T16:03:21.452Z,1.48
2023-02-27T16:05:52.870Z,1.30
2023-02-27T16:08:21.168Z,1.25
2023-02-27T16:10:49.702Z,1.30
2023-02-27T16:13:25.102Z,1.10
2023-02-27T16:16:04.088Z,1.20
2023-02-27T16:18:32.831Z,1.05
2023-02-27T16:21:12.937Z,1.10
2023-02-27T16:23:39.841Z,1.10
2023-02-27T16:26:28.015Z,1.08
2023-02-27T16:29:15.283Z,1.10
2023-02-27T16:31:49.276Z,1.00
2023-02-27T16:34:28.022Z,1.10
2023-02-27T16:37:03.659Z,1.00
2023-02-27T16:39:31.239Z,1.00
2023-02-27T16:41:59.897Z,1.17
2023-02-27T16:44:27.129Z,1.08
2023-02-27T16:46:55.795Z,1.20
2023-02-27T16:49:28.845Z,1.00
2023-02-27T16:51:56.082Z,1.20
2023-02-27T16:54:23.331Z,1.00
2023-02-27T16:56:50.665Z,1.10
2023-02-27T16:59:27.756Z,1.10
2023-02-27T17:01:55.808Z,1.20
2023-02-27T17:04:25.946Z,1.05
2023-02-27T17:06:53.351Z,1.02
2023-02-27T17:09:20.509Z,1.02
2023-02-27T17:11:47.228Z,1.10
2023-02-27T17:14:13.893Z,1.20
2023-02-27T17:16:40.706Z,1.20
2023-02-27T17:19:07.742Z,1.20
2023-02-27T17:21:34.997Z,1.20
2023-02-27T17:24:01.805Z,1.30
2023-02-27T17:26:29.049Z,1.00
2023-02-27T17:28:56.548Z,1.10
2023-02-27T17:31:24.242Z,1.23
2023-02-27T17:33:52.019Z,1.10
2023-02-27T17:36:18.799Z,1.00
2023-02-27T17:38:45.541Z,1.05
2023-02-27T17:41:13.938Z,1.10
2023-02-27T17:43:43.840Z,1.08
2023-02-27T17:46:12.015Z,1.13
2023-02-27T17:48:39.170Z,1.00
2023-02-27T17:51:11.583Z,1.00
2023-02-27T17:53:38.898Z,1.20
2023-02-27T17:56:06.554Z,1.00
2023-02-27T17:58:34.094Z,1.15
2023-02-27T18:01:09.609Z,1.10
2023-02-27T18:03:36.189Z,1.10
2023-02-27T18:06:03.361Z,0.95
2023-02-27T18:08:31.460Z,1.20
2023-02-27T18:10:58.847Z,1.08
2023-02-27T18:13:27.441Z,0.98
2023-02-27T18:15:57.255Z,1.05
2023-02-27T18:18:23.960Z,1.00
2023-02-27T18:21:06.160Z,0.90
2023-02-27T18:23:32.880Z,1.10
2023-02-27T18:26:00.252Z,0.90
2023-02-27T18:28:28.016Z,0.90
2023-02-27T18:30:54.912Z,1.00
2023-02-27T18:33:23.111Z,1.00
2023-02-27T18:35:50.539Z,0.90
2023-02-27T18:38:17.536Z,1.00
2023-02-27T18:40:44.345Z,0.95
2023-02-27T18:43:11.814Z,1.00
2023-02-27T18:45:38.665Z,0.90
2023-02-27T18:48:06.347Z,1.00
2023-02-27T18:50:33.214Z,0.93
2023-02-27T18:53:00.320Z,1.00
2023-02-27T18:55:27.001Z,1.00
2023-02-27T18:57:53.633Z,1.00
2023-02-27T19:00:21.906Z,1.10
2023-02-27T19:02:48.610Z,1.05
2023-02-27T19:05:15.444Z,1.00
2023-02-27T19:07:42.542Z,0.93
2023-02-27T19:10:10.386Z,1.00
2023-02-27T19:12:37.229Z,1.15
2023-02-27T19:15:04.772Z,1.10
2023-02-27T19:17:31.433Z,1.10
2023-02-27T19:19:58.142Z,1.00
2023-02-27T19:22:29.381Z,1.00
2023-02-27T19:24:56.963Z,1.20
2023-02-27T19:27:23.745Z,1.10
2023-02-27T19:29:50.807Z,1.02
2023-02-27T19:32:17.595Z,1.00
2023-02-27T19:34:44.410Z,1.08
2023-02-27T19:37:10.988Z,1.10
2023-02-27T19:39:37.676Z,0.90
2023-02-27T19:42:04.295Z,1.10
2023-02-27T19:44:30.933Z,1.00
2023-02-27T19:46:57.649Z,1.10
2023-02-27T19:49:24.281Z,1.20
2023-02-27T19:51:50.873Z,1.10
2023-02-27T19:54:17.576Z,1.00
2023-02-27T19:56:44.351Z,1.00
2023-02-27T19:59:12.771Z,1.10
2023-02-27T20:01:39.923Z,1.08
2023-02-27T20:04:07.957Z,1.00
2023-02-27T20:06:42.122Z,1.00
2023-02-27T20:09:15.222Z,1.00
2023-02-27T20:11:46.166Z,1.00
2023-02-27T20:14:14.990Z,1.00
2023-02-27T20:16:42.442Z,1.02
2023-02-27T20:19:12.897Z,1.10
2023-02-27T20:21:40.054Z,1.02
2023-02-27T20:24:06.986Z,1.00
2023-02-27T20:26:36.477Z,1.08
2023-02-27T20:29:09.183Z,0.90
2023-02-27T20:31:37.833Z,0.90
2023-02-27T20:34:10.996Z,0.90
2023-02-27T20:36:39.213Z,1.00
2023-02-27T20:39:06.870Z,0.90
2023-02-27T20:41:34.747Z,1.00
2023-02-27T20:44:01.619Z,0.98
2023-02-27T20:46:29.631Z,1.00
2023-02-27T20:48:59.458Z,0.93
2023-02-27T20:51:28.583Z,0.90
2023-02-27T20:53:58.430Z,0.90
2023-02-27T20:56:34.105Z,0.93
2023-02-27T20:59:04.954Z,0.98
2023-02-27T21:01:32.024Z,0.90
2023-02-27T21:03:59.771Z,0.82
2023-02-27T21:06:27.049Z,1.00
2023-02-27T21:08:55.972Z,0.80
2023-02-27T21:11:29.218Z,0.90
2023-02-27T21:16:25.781Z,1.00
2023-02-27T21:18:53.025Z,1.00
2023-02-27T21:21:24.007Z,1.00
2023-02-27T21:23:51.714Z,0.90
2023-02-27T21:26:21.006Z,0.88
2023-02-27T21:28:54.931Z,1.10
2023-02-27T21:31:23.818Z,0.98
2023-02-27T21:33:51.107Z,1.10
2023-02-27T21:36:17.836Z,1.00
2023-02-27T21:38:45.959Z,0.88
2023-02-27T21:41:13.413Z,0.90
2023-02-27T21:43:40.687Z,1.00
2023-02-27T21:46:10.198Z,1.00
2023-02-27T21:48:36.941Z,0.90
2023-02-27T21:51:04.308Z,1.00
2023-02-27T21:53:31.649Z,0.90
2023-02-27T21:56:09.565Z,0.80
2023-02-27T21:58:37.301Z,1.00
2023-02-27T22:01:17.800Z,0.80
2023-02-27T22:03:49.279Z,0.98
2023-02-27T22:06:16.364Z,1.00
2023-02-27T22:08:43.444Z,1.00
2023-02-27T22:11:11.128Z,1.10
2023-02-27T22:13:37.948Z,0.90
2023-02-27T22:16:06.863Z,1.05
2023-02-27T22:18:33.628Z,1.00
2023-02-27T22:21:01.305Z,1.10
2023-02-27T22:23:28.262Z,0.90
2023-02-27T22:26:06.908Z,1.10
2023-02-27T22:28:34.488Z,0.88
2023-02-27T22:31:07.252Z,0.90
2023-02-27T22:33:34.389Z,1.00
2023-02-27T22:36:01.048Z,0.93
2023-02-27T22:38:28.908Z,1.00
2023-02-27T22:40:55.473Z,1.10
2023-02-27T22:43:22.886Z,1.00
2023-02-27T22:45:49.580Z,1.00
2023-02-27T22:48:16.229Z,1.00
2023-02-27T22:50:42.788Z,1.15
2023-02-27T22:53:09.364Z,1.00
2023-02-27T22:55:35.981Z,0.95
2023-02-27T22:58:02.728Z,1.05
2023-02-27T23:00:29.369Z,0.90
2023-02-27T23:02:55.961Z,0.90
2023-02-27T23:05:22.544Z,0.90
2023-02-27T23:07:49.092Z,0.90
2023-02-27T23:10:15.763Z,1.00
2023-02-27T23:12:42.412Z,1.00
2023-02-27T23:15:09.817Z,0.90
2023-02-27T23:17:41.447Z,0.90
2023-02-27T23:20:15.936Z,0.90
2023-02-27T23:22:42.551Z,0.80
2023-02-27T23:25:11.780Z,0.90
2023-02-27T23:27:38.515Z,0.80
2023-02-27T23:30:06.210Z,1.00
2023-02-27T23:32:38.303Z,0.90
2023-02-27T23:35:05.260Z,1.00
2023-02-27T23:37:31.804Z,0.90
2023-02-27T23:39:58.393Z,0.90
2023-02-27T23:42:24.952Z,1.00
2023-02-27T23:45:10.097Z,0.90
2023-02-27T23:47:45.786Z,0.90
2023-02-27T23:50:13.115Z,0.90
2023-02-27T23:52:39.829Z,1.00
2023-02-27T23:55:07.029Z,1.00
2023-02-27T23:57:33.653Z,1.00
